Time;durP1;ratioP1;P1;durP2;ratioP2;P2;SDS_P1;SDS_P2;PMS_P1;PMS_P2;Temp;Humidity;BMP_temperature;BMP_pressure;BME280_temperature;BME280_humidity;BME280_pressure;Samples;Min_cycle;Max_cycle;Signal;HPM_P1;HPM_P2
2023/04/13 00:00:29;;;;;;;3.05;0.80;;;6.20;99.90;;;;;;5073464;28;20020;-81
2023/04/13 00:02:55;;;;;;;3.45;0.77;;;6.20;99.90;;;;;;5073503;28;20036;-80
2023/04/13 00:05:22;;;;;;;3.75;0.93;;;6.20;99.90;;;;;;5067256;28;20028;-81
2023/04/13 00:07:48;;;;;;;4.78;1.30;;;6.10;99.90;;;;;;5074100;28;20504;-82
2023/04/13 00:10:20;;;;;;;2.67;0.68;;;6.10;99.90;;;;;;5086115;28;20672;-81
2023/04/13 00:12:49;;;;;;;2.47;0.90;;;6.10;99.90;;;;;;5086842;28;20142;-81
2023/04/13 00:15:16;;;;;;;3.25;1.05;;;6.10;99.90;;;;;;5072706;28;20028;-77
2023/04/13 00:17:43;;;;;;;2.47;0.82;;;6.10;99.90;;;;;;5085777;28;20024;-80
2023/04/13 00:20:12;;;;;;;4.07;1.15;;;6.10;99.90;;;;;;5086365;28;20027;-82
2023/04/13 00:22:43;;;;;;;2.63;0.93;;;6.10;99.90;;;;;;5074364;28;20032;-79
2023/04/13 00:25:10;;;;;;;3.85;0.80;;;6.10;99.90;;;;;;5071658;28;20646;-80
2023/04/13 00:27:39;;;;;;;3.97;0.75;;;6.10;99.90;;;;;;5086056;28;20118;-82
2023/04/13 00:30:15;;;;;;;2.92;0.77;;;6.10;99.90;;;;;;5086221;28;20042;-80
2023/04/13 00:32:42;;;;;;;2.22;0.70;;;6.20;99.90;;;;;;5073212;28;20504;-80
2023/04/13 00:35:09;;;;;;;6.30;0.98;;;6.20;99.90;;;;;;5090421;28;20557;-81
2023/04/13 00:37:35;;;;;;;3.03;0.90;;;6.20;99.90;;;;;;5077168;28;20039;-80
2023/04/13 00:40:00;;;;;;;4.22;0.75;;;6.20;99.90;;;;;;5088014;28;20024;-80
2023/04/13 00:42:26;;;;;;;2.80;0.90;;;6.20;99.90;;;;;;5089612;28;20465;-81
2023/04/13 00:44:52;;;;;;;3.58;1.08;;;6.20;99.90;;;;;;5090322;28;20028;-81
2023/04/13 00:47:26;;;;;;;2.15;0.88;;;6.20;99.90;;;;;;5089752;28;20117;-81
2023/04/13 00:49:55;;;;;;;2.22;1.15;;;6.30;99.90;;;;;;5090457;28;20501;-81
2023/04/13 00:52:22;;;;;;;2.53;0.98;;;6.30;99.90;;;;;;5076790;28;20138;-79
2023/04/13 00:54:50;;;;;;;4.45;1.10;;;6.20;99.90;;;;;;5088543;28;20024;-81
2023/04/13 00:57:17;;;;;;;2.70;0.88;;;6.20;99.90;;;;;;5073850;28;20068;-79
2023/04/13 00:59:43;;;;;;;2.17;0.90;;;6.20;99.90;;;;;;5088728;28;20024;-81
2023/04/13 01:02:09;;;;;;;4.78;1.23;;;6.20;99.90;;;;;;5076979;28;20035;-80
2023/04/13 01:04:34;;;;;;;4.40;1.20;;;6.10;99.90;;;;;;5089073;28;20615;-79
2023/04/13 01:07:08;;;;;;;1.83;0.88;;;6.10;99.90;;;;;;5076718;28;20048;-82
2023/04/13 01:09:41;;;;;;;3.58;1.20;;;6.10;99.90;;;;;;5076284;28;20492;-83
2023/04/13 01:12:17;;;;;;;4.45;1.92;;;6.10;99.90;;;;;;5070617;28;20139;-81
2023/04/13 01:15:04;;;;;;;5.40;1.33;;;6.10;99.90;;;;;;5089703;28;20478;-81
2023/04/13 01:17:32;;;;;;;4.53;1.15;;;6.10;99.90;;;;;;5086892;28;20036;-80
2023/04/13 01:20:16;;;;;;;6.03;1.67;;;6.10;99.90;;;;;;5089549;28;20058;-80
2023/04/13 01:22:51;;;;;;;5.43;1.20;;;6.10;99.90;;;;;;5077100;28;20062;-81
2023/04/13 01:25:40;;;;;;;3.05;1.20;;;6.10;99.90;;;;;;5075017;28;20587;-80
2023/04/13 01:28:14;;;;;;;4.05;1.40;;;6.10;99.90;;;;;;5077988;28;20439;-80
2023/04/13 01:30:41;;;;;;;6.20;2.00;;;6.10;99.90;;;;;;5089564;28;20114;-79
2023/04/13 01:33:08;;;;;;;2.70;1.08;;;6.20;99.90;;;;;;5088668;28;20108;-81
2023/04/13 01:35:35;;;;;;;3.78;1.30;;;6.20;99.90;;;;;;5089282;28;20375;-80
2023/04/13 01:38:02;;;;;;;5.95;1.48;;;6.20;99.90;;;;;;5076324;28;20400;-80
2023/04/13 01:40:29;;;;;;;4.25;1.17;;;6.20;99.90;;;;;;5088412;28;20103;-80
2023/04/13 01:42:56;;;;;;;3.47;1.13;;;6.20;99.90;;;;;;5075299;28;20477;-81
2023/04/13 01:45:30;;;;;;;6.63;1.73;;;6.30;99.90;;;;;;5073872;28;20478;-82
2023/04/13 01:48:27;;;;;;;2.67;1.17;;;6.30;99.90;;;;;;5089032;28;20020;-79
2023/04/13 01:51:12;;;;;;;5.43;1.50;;;6.30;99.90;;;;;;5088295;28;20057;-81
2023/04/13 01:53:47;;;;;;;4.18;1.15;;;6.30;99.90;;;;;;5087595;28;20028;-81
2023/04/13 01:56:18;;;;;;;3.20;1.35;;;6.30;99.90;;;;;;5089480;28;20036;-80
2023/04/13 01:58:46;;;;;;;4.38;1.20;;;6.30;99.90;;;;;;5088432;28;20413;-83
2023/04/13 02:01:13;;;;;;;3.40;1.33;;;6.40;99.90;;;;;;5089044;28;20516;-82
2023/04/13 02:03:38;;;;;;;5.20;1.20;;;6.40;99.90;;;;;;5073745;28;20032;-81
2023/04/13 02:06:06;;;;;;;6.68;1.10;;;6.40;99.90;;;;;;5088609;28;20918;-80
2023/04/13 02:08:31;;;;;;;4.22;0.90;;;6.40;99.90;;;;;;5074629;28;20028;-81
2023/04/13 02:10:57;;;;;;;2.95;1.15;;;6.50;99.90;;;;;;5089385;28;20113;-81
2023/04/13 02:13:24;;;;;;;2.78;0.90;;;6.50;99.90;;;;;;5087463;28;20028;-81
2023/04/13 02:15:49;;;;;;;5.13;0.93;;;6.50;99.90;;;;;;5088296;28;20114;-81
2023/04/13 02:18:15;;;;;;;6.55;1.30;;;6.50;99.90;;;;;;5088062;28;20048;-80
2023/04/13 02:20:43;;;;;;;2.75;1.10;;;6.50;99.90;;;;;;5087797;28;20028;-82
2023/04/13 02:23:13;;;;;;;3.47;1.00;;;6.50;99.90;;;;;;5075804;28;20397;-81
2023/04/13 02:25:41;;;;;;;4.13;1.83;;;6.50;99.90;;;;;;5070905;28;20201;-84
2023/04/13 02:28:07;;;;;;;4.40;0.98;;;6.50;99.90;;;;;;5076575;28;20032;-82
2023/04/13 02:30:33;;;;;;;3.78;1.10;;;6.50;99.90;;;;;;5074931;28;20043;-82
2023/04/13 02:32:59;;;;;;;7.03;1.48;;;6.50;99.90;;;;;;5073434;28;20617;-82
2023/04/13 02:35:26;;;;;;;4.32;1.10;;;6.60;99.90;;;;;;5073739;28;20492;-81
2023/04/13 02:37:52;;;;;;;4.95;1.13;;;6.60;99.90;;;;;;5087570;28;20126;-80
2023/04/13 02:40:18;;;;;;;2.90;1.05;;;6.60;99.90;;;;;;5087511;28;20019;-82
2023/04/13 02:42:43;;;;;;;5.60;1.38;;;6.60;99.90;;;;;;5074595;28;20500;-82
2023/04/13 02:45:14;;;;;;;3.38;1.63;;;6.60;99.90;;;;;;5086529;28;20020;-81
2023/04/13 02:47:40;;;;;;;5.25;1.35;;;6.60;99.90;;;;;;5070362;28;20047;-81
2023/04/13 02:50:06;;;;;;;5.80;1.33;;;6.60;99.90;;;;;;5088407;28;20043;-82
2023/04/13 02:52:32;;;;;;;7.85;1.42;;;6.60;99.90;;;;;;5086844;28;20134;-82
2023/04/13 02:54:57;;;;;;;5.43;1.30;;;6.60;99.90;;;;;;5074735;28;20054;-82
2023/04/13 02:57:24;;;;;;;3.13;1.23;;;6.60;99.90;;;;;;5069702;28;20051;-83
2023/04/13 02:59:50;;;;;;;5.65;1.48;;;6.50;99.90;;;;;;5073803;28;20453;-81
2023/04/13 03:02:16;;;;;;;4.45;1.38;;;6.50;99.90;;;;;;5073572;28;20552;-82
2023/04/13 03:04:43;;;;;;;3.00;1.02;;;6.50;99.90;;;;;;5086460;28;20023;-81
2023/04/13 03:07:09;;;;;;;4.43;1.25;;;6.50;99.90;;;;;;5071250;28;20059;-83
2023/04/13 03:09:39;;;;;;;3.97;1.73;;;6.40;99.90;;;;;;5087158;28;20331;-83
2023/04/13 03:12:06;;;;;;;4.40;1.30;;;6.40;99.90;;;;;;5074232;28;20409;-81
2023/04/13 03:14:32;;;;;;;4.30;1.38;;;6.30;99.90;;;;;;5068992;28;20051;-81
2023/04/13 03:16:58;;;;;;;2.40;1.42;;;6.30;99.90;;;;;;5073555;28;20067;-80
2023/04/13 03:19:24;;;;;;;4.50;1.45;;;6.20;99.90;;;;;;5072717;28;20351;-82
2023/04/13 03:21:51;;;;;;;3.40;1.30;;;6.20;99.90;;;;;;5086579;28;20123;-81
2023/04/13 03:24:16;;;;;;;2.70;1.15;;;6.10;99.90;;;;;;5086619;28;20043;-81
2023/04/13 03:26:42;;;;;;;3.60;1.17;;;6.10;99.90;;;;;;5070994;28;20046;-81
2023/04/13 03:29:07;;;;;;;3.90;1.35;;;6.00;99.90;;;;;;5074201;28;20024;-81
2023/04/13 03:31:33;;;;;;;4.30;1.50;;;6.00;99.90;;;;;;5073354;28;20042;-81
2023/04/13 03:33:59;;;;;;;3.70;1.45;;;6.00;99.90;;;;;;5074807;28;20023;-80
2023/04/13 03:36:26;;;;;;;2.92;1.30;;;6.00;99.90;;;;;;5071958;28;20031;-81
2023/04/13 03:38:52;;;;;;;6.03;1.85;;;5.90;99.90;;;;;;5086989;28;20054;-81
2023/04/13 03:41:18;;;;;;;3.83;1.50;;;5.90;99.90;;;;;;5074173;28;20034;-81
2023/04/13 03:43:43;;;;;;;3.67;1.30;;;5.90;99.90;;;;;;5085817;28;20175;-80
2023/04/13 03:46:09;;;;;;;4.30;1.52;;;5.90;99.90;;;;;;5085915;28;20478;-83
2023/04/13 03:48:35;;;;;;;3.65;1.63;;;5.90;99.90;;;;;;5086060;28;20639;-82
2023/04/13 03:51:01;;;;;;;3.35;1.98;;;5.80;99.90;;;;;;5074189;28;20481;-81
2023/04/13 03:53:27;;;;;;;4.00;1.98;;;5.80;99.90;;;;;;5086051;28;20016;-81
2023/04/13 03:55:53;;;;;;;9.50;2.38;;;5.80;99.90;;;;;;5086699;28;20027;-81
2023/04/13 03:58:18;;;;;;;5.40;2.03;;;5.80;99.90;;;;;;5086499;28;20044;-80
2023/04/13 04:00:44;;;;;;;3.47;1.85;;;5.80;99.90;;;;;;5086403;28;20465;-82
2023/04/13 04:03:10;;;;;;;7.60;1.92;;;5.90;99.90;;;;;;5074213;28;20110;-82
2023/04/13 04:05:39;;;;;;;5.18;2.15;;;5.90;99.90;;;;;;5085481;28;20241;-81
2023/04/13 04:08:05;;;;;;;4.13;1.60;;;5.80;99.90;;;;;;5077612;28;20019;-81
2023/04/13 04:10:30;;;;;;;2.97;1.90;;;5.80;99.90;;;;;;5077763;28;20028;-80
2023/04/13 04:12:56;;;;;;;7.20;2.17;;;5.80;99.90;;;;;;5091128;28;20032;-81
2023/04/13 04:15:22;;;;;;;4.00;1.85;;;5.80;99.90;;;;;;5077696;28;20407;-80
2023/04/13 04:17:48;;;;;;;6.55;1.85;;;5.80;99.90;;;;;;5073226;28;20028;-81
2023/04/13 04:20:15;;;;;;;3.83;1.65;;;5.80;99.90;;;;;;5077475;28;20111;-82
2023/04/13 04:22:40;;;;;;;2.30;1.40;;;5.80;99.90;;;;;;5076944;28;20034;-81
2023/04/13 04:25:07;;;;;;;3.63;1.52;;;5.80;99.90;;;;;;5089640;28;20023;-80
2023/04/13 04:27:36;;;;;;;3.72;1.50;;;5.80;99.90;;;;;;5089887;28;20598;-80
2023/04/13 04:30:06;;;;;;;3.83;1.63;;;5.80;99.90;;;;;;5080001;28;20485;-81
2023/04/13 04:32:32;;;;;;;3.88;2.33;;;5.90;99.90;;;;;;5088429;28;20036;-79
2023/04/13 04:34:59;;;;;;;6.45;2.35;;;5.90;99.90;;;;;;5078352;28;20431;-81
2023/04/13 04:37:25;;;;;;;4.43;1.50;;;5.90;99.90;;;;;;5076914;28;20106;-82
2023/04/13 04:39:52;;;;;;;4.40;1.90;;;5.90;99.90;;;;;;5089290;28;20111;-81
2023/04/13 04:42:17;;;;;;;4.88;2.03;;;5.90;99.90;;;;;;5089975;28;20031;-82
2023/04/13 04:44:43;;;;;;;4.78;2.35;;;5.90;99.90;;;;;;5076761;28;20115;-82
2023/04/13 04:47:12;;;;;;;4.38;1.90;;;5.90;99.90;;;;;;5090116;28;20038;-80
2023/04/13 04:49:37;;;;;;;5.00;2.47;;;5.90;99.90;;;;;;5089966;28;20024;-81
2023/04/13 04:52:11;;;;;;;8.20;3.03;;;6.00;99.90;;;;;;5075720;28;20093;-81
2023/04/13 04:54:39;;;;;;;6.70;3.42;;;5.90;99.90;;;;;;5088835;28;20019;-82
2023/04/13 04:57:09;;;;;;;8.35;3.75;;;6.00;99.90;;;;;;5088969;28;20043;-81
2023/04/13 04:59:35;;;;;;;6.95;4.32;;;6.10;99.90;;;;;;5089535;28;20030;-81
2023/04/13 05:02:01;;;;;;;11.40;5.65;;;6.10;99.90;;;;;;5076477;28;20024;-79
2023/04/13 05:04:26;;;;;;;8.38;4.05;;;6.10;99.90;;;;;;5075748;28;20401;-81
2023/04/13 05:06:52;;;;;;;7.70;4.32;;;6.20;99.90;;;;;;5078991;28;20095;-80
2023/04/13 05:09:19;;;;;;;11.70;4.65;;;6.20;99.90;;;;;;5087979;28;20019;-80
2023/04/13 05:11:44;;;;;;;7.75;3.95;;;6.20;99.90;;;;;;5088263;28;20555;-81
2023/04/13 05:14:10;;;;;;;8.27;3.75;;;6.20;99.90;;;;;;5089585;28;20187;-81
2023/04/13 05:16:36;;;;;;;6.35;3.95;;;6.20;99.90;;;;;;5088997;28;20024;-80
2023/04/13 05:19:04;;;;;;;10.52;5.05;;;6.20;99.90;;;;;;5075961;28;20013;-79
2023/04/13 05:21:29;;;;;;;7.82;4.40;;;6.20;99.90;;;;;;5088287;28;20351;-81
2023/04/13 05:23:55;;;;;;;8.68;5.35;;;6.20;99.90;;;;;;5089275;28;20054;-81
2023/04/13 05:26:24;;;;;;;13.75;6.57;;;6.20;99.90;;;;;;5088681;28;20119;-81
2023/04/13 05:28:50;;;;;;;13.00;7.00;;;6.20;99.90;;;;;;5088558;28;20028;-81
2023/04/13 05:31:16;;;;;;;13.43;7.10;;;6.20;99.90;;;;;;5089259;28;20081;-81
2023/04/13 05:33:41;;;;;;;15.43;7.32;;;6.20;99.90;;;;;;5088441;28;20016;-82
2023/04/13 05:36:08;;;;;;;14.52;7.38;;;6.20;99.90;;;;;;5084843;28;20455;-82
2023/04/13 05:38:35;;;;;;;16.05;7.97;;;6.20;99.90;;;;;;5088733;28;20024;-80
2023/04/13 05:41:02;;;;;;;14.05;7.78;;;6.30;99.90;;;;;;5088709;28;20041;-82
2023/04/13 05:43:27;;;;;;;15.80;7.38;;;6.30;99.90;;;;;;5089321;28;21184;-81
2023/04/13 05:45:53;;;;;;;12.48;6.75;;;6.30;99.90;;;;;;5088208;28;20485;-82
2023/04/13 05:48:18;;;;;;;14.40;6.80;;;6.30;99.90;;;;;;5088729;28;20089;-81
2023/04/13 05:50:44;;;;;;;12.40;7.22;;;6.40;99.90;;;;;;5087547;28;20097;-81
2023/04/13 05:53:10;;;;;;;13.82;6.70;;;6.40;99.90;;;;;;5088415;28;20598;-81
2023/04/13 05:55:35;;;;;;;11.57;6.22;;;6.50;99.90;;;;;;5088245;28;20352;-80
2023/04/13 05:58:02;;;;;;;13.45;6.55;;;6.50;99.90;;;;;;5068092;28;20051;-81
2023/04/13 06:00:28;;;;;;;11.38;5.60;;;6.70;99.90;;;;;;5066879;28;20071;-80
2023/04/13 06:02:54;;;;;;;15.02;6.18;;;6.70;99.90;;;;;;5068367;28;20483;-82
2023/04/13 06:05:21;;;;;;;11.63;5.43;;;6.70;99.90;;;;;;5067579;28;20024;-83
2023/04/13 06:07:46;;;;;;;11.15;6.78;;;6.80;99.90;;;;;;5067831;28;20037;-80
2023/04/13 06:10:16;;;;;;;13.63;6.38;;;6.80;99.90;;;;;;5068249;28;20051;-81
2023/04/13 06:12:42;;;;;;;13.52;7.43;;;6.90;99.90;;;;;;5067996;28;20062;-82
2023/04/13 06:15:08;;;;;;;9.02;5.68;;;6.90;99.90;;;;;;5067526;28;20119;-81
2023/04/13 06:17:34;;;;;;;10.30;6.53;;;6.90;99.90;;;;;;5069878;28;20020;-81
2023/04/13 06:20:00;;;;;;;11.52;6.85;;;6.90;99.90;;;;;;5068483;28;20572;-82
2023/04/13 06:22:26;;;;;;;16.48;7.32;;;6.90;99.90;;;;;;5068180;28;20032;-81
2023/04/13 06:24:51;;;;;;;12.25;7.40;;;6.90;99.90;;;;;;5068154;28;20029;-79
2023/04/13 06:27:17;;;;;;;12.85;7.45;;;6.90;99.90;;;;;;5067311;28;20051;-81
2023/04/13 06:29:44;;;;;;;15.27;7.60;;;6.90;99.90;;;;;;5066234;28;20033;-82
2023/04/13 06:32:10;;;;;;;13.25;7.43;;;6.90;99.90;;;;;;5070058;28;20048;-81
2023/04/13 06:34:36;;;;;;;14.65;7.53;;;6.90;99.90;;;;;;5067188;28;20170;-80
2023/04/13 06:37:02;;;;;;;12.25;7.47;;;6.80;99.90;;;;;;5068041;28;20029;-84
2023/04/13 06:39:27;;;;;;;11.23;6.30;;;6.80;99.90;;;;;;5069703;28;20078;-80
2023/04/13 06:41:53;;;;;;;11.63;6.82;;;6.70;99.90;;;;;;5067473;28;20620;-80
2023/04/13 06:44:19;;;;;;;11.65;6.40;;;6.70;99.90;;;;;;5067116;28;20020;-82
2023/04/13 06:46:45;;;;;;;12.85;6.13;;;6.60;99.90;;;;;;5065998;28;20064;-83
2023/04/13 06:49:12;;;;;;;11.25;5.93;;;6.60;99.90;;;;;;5066314;28;20058;-82
2023/04/13 06:51:37;;;;;;;8.23;5.15;;;6.60;99.90;;;;;;5067651;28;20554;-82
2023/04/13 06:54:03;;;;;;;11.18;5.47;;;6.60;99.90;;;;;;5072706;28;20112;-82
2023/04/13 06:56:28;;;;;;;12.85;6.45;;;6.60;99.90;;;;;;5073357;28;20581;-81
2023/04/13 06:59:00;;;;;;;9.35;5.40;;;6.60;99.90;;;;;;5073971;28;20476;-81
2023/04/13 07:01:26;;;;;;;10.32;5.78;;;6.60;99.90;;;;;;5087504;28;20050;-81
2023/04/13 07:03:52;;;;;;;8.77;5.30;;;6.60;99.90;;;;;;5086183;28;20019;-81
2023/04/13 07:06:18;;;;;;;9.90;5.05;;;6.60;99.90;;;;;;5072702;28;20042;-81
2023/04/13 07:08:43;;;;;;;7.70;4.85;;;6.60;99.90;;;;;;5086808;28;20033;-81
2023/04/13 07:11:09;;;;;;;6.90;4.13;;;6.60;99.90;;;;;;5074098;28;20024;-83
2023/04/13 07:13:39;;;;;;;7.53;3.80;;;6.60;99.90;;;;;;5086489;28;20373;-80
2023/04/13 07:16:06;;;;;;;7.70;3.47;;;6.60;99.90;;;;;;5087758;28;20032;-80
2023/04/13 07:18:31;;;;;;;6.68;3.55;;;6.70;99.90;;;;;;5086851;28;20366;-81
2023/04/13 07:20:57;;;;;;;8.77;3.65;;;6.70;99.90;;;;;;5086055;28;20031;-81
2023/04/13 07:23:22;;;;;;;7.85;3.70;;;6.70;99.90;;;;;;5087230;28;20034;-81
2023/04/13 07:25:48;;;;;;;7.90;4.00;;;6.70;99.90;;;;;;5087378;28;20032;-82
2023/04/13 07:28:14;;;;;;;10.13;5.03;;;6.70;99.90;;;;;;5086648;28;20063;-82
2023/04/13 07:30:43;;;;;;;10.70;4.60;;;6.70;99.90;;;;;;5086260;28;20028;-82
2023/04/13 07:33:09;;;;;;;9.02;3.85;;;6.70;99.90;;;;;;5073925;28;20084;-81
2023/04/13 07:35:36;;;;;;;9.57;4.00;;;6.70;99.90;;;;;;5074593;28;20034;-84
2023/04/13 07:38:02;;;;;;;6.95;4.32;;;6.80;99.90;;;;;;5086612;28;20119;-82
2023/04/13 07:40:27;;;;;;;8.73;4.07;;;6.90;99.90;;;;;;5087250;28;20488;-82
2023/04/13 07:42:53;;;;;;;8.05;4.25;;;7.00;99.90;;;;;;5073254;28;20020;-83
2023/04/13 07:45:21;;;;;;;8.32;4.43;;;7.20;99.90;;;;;;5086041;28;20474;-82
2023/04/13 07:47:47;;;;;;;9.57;4.50;;;7.30;99.90;;;;;;5074094;28;20539;-82
2023/04/13 07:50:13;;;;;;;9.90;4.75;;;7.40;99.90;;;;;;5086828;28;20034;-83
2023/04/13 07:52:39;;;;;;;10.90;5.20;;;7.40;99.90;;;;;;5071437;28;20044;-85
2023/04/13 07:55:07;;;;;;;12.55;5.43;;;7.50;99.90;;;;;;5071172;28;20476;-83
2023/04/13 07:57:35;;;;;;;13.38;5.22;;;7.60;99.90;;;;;;5086545;28;20092;-83
2023/04/13 08:00:04;;;;;;;11.85;4.85;;;7.70;99.90;;;;;;5086789;28;20024;-84
2023/04/13 08:02:30;;;;;;;9.52;5.28;;;7.70;99.90;;;;;;5088116;28;20028;-82
2023/04/13 08:04:56;;;;;;;10.70;4.60;;;7.80;99.90;;;;;;5087058;28;20090;-83
2023/04/13 08:07:22;;;;;;;12.30;5.10;;;8.00;99.90;;;;;;5084955;28;20494;-83
2023/04/13 08:09:48;;;;;;;11.50;5.35;;;8.10;99.90;;;;;;5086247;28;20107;-82
2023/04/13 08:12:15;;;;;;;11.13;6.28;;;8.20;99.90;;;;;;5087293;28;20027;-84
2023/04/13 08:14:41;;;;;;;11.63;5.00;;;8.30;99.90;;;;;;5086733;28;20462;-83
2023/04/13 08:17:07;;;;;;;13.55;4.80;;;8.30;99.90;;;;;;5085351;28;20024;-82
2023/04/13 08:19:32;;;;;;;16.73;6.00;;;8.30;99.90;;;;;;5076385;28;20176;-83
2023/04/13 08:21:58;;;;;;;13.20;4.28;;;8.30;99.90;;;;;;5085686;28;20129;-82
2023/04/13 08:24:25;;;;;;;12.98;4.25;;;8.40;99.90;;;;;;5085438;28;20390;-82
2023/04/13 08:26:54;;;;;;;16.25;5.13;;;8.40;99.90;;;;;;5086569;28;20082;-81
2023/04/13 08:29:23;;;;;;;13.93;4.75;;;8.50;99.90;;;;;;5072716;28;20367;-82
2023/04/13 08:31:49;;;;;;;13.98;4.90;;;8.60;99.90;;;;;;5086859;28;20024;-82
2023/04/13 08:34:15;;;;;;;14.90;4.75;;;8.60;99.90;;;;;;5085800;28;20030;-80
2023/04/13 08:36:41;;;;;;;13.23;4.80;;;8.60;99.90;;;;;;5085125;28;20068;-81
2023/04/13 08:39:09;;;;;;;8.57;3.60;;;8.60;99.90;;;;;;5085485;28;20712;-81
2023/04/13 08:41:36;;;;;;;16.92;4.50;;;8.60;99.90;;;;;;5085566;28;20362;-82
2023/04/13 08:44:05;;;;;;;13.48;3.42;;;8.50;99.90;;;;;;5073192;28;20084;-82
2023/04/13 08:46:32;;;;;;;10.85;2.70;;;8.60;99.90;;;;;;5085889;28;20085;-81
2023/04/13 08:48:58;;;;;;;12.88;3.00;;;8.60;99.90;;;;;;5076244;28;20115;-82
2023/04/13 08:51:27;;;;;;;9.10;2.80;;;8.60;99.90;;;;;;5086733;28;20055;-81
2023/04/13 08:53:53;;;;;;;11.20;2.75;;;8.60;99.90;;;;;;5074690;28;20020;-80
2023/04/13 08:56:19;;;;;;;12.10;2.83;;;8.70;99.90;;;;;;5088211;28;20149;-81
2023/04/13 08:58:47;;;;;;;7.30;2.58;;;8.80;99.90;;;;;;5089081;28;20393;-82
2023/04/13 09:01:14;;;;;;;9.55;2.72;;;8.80;99.90;;;;;;5090039;28;20112;-81
2023/04/13 09:04:09;;;;;;;11.98;3.05;;;8.90;99.90;;;;;;5088930;28;20040;-83
2023/04/13 09:06:41;;;;;;;11.18;2.83;;;8.90;99.90;;;;;;5083598;28;20406;-81
2023/04/13 09:09:14;;;;;;;13.65;3.20;;;8.90;99.90;;;;;;5090002;28;20028;-80
2023/04/13 09:11:41;;;;;;;10.45;2.92;;;9.00;99.90;;;;;;5088721;28;20027;-81
2023/04/13 09:14:08;;;;;;;10.93;3.20;;;9.00;99.90;;;;;;5088913;28;20090;-82
2023/04/13 09:16:41;;;;;;;11.38;2.15;;;9.00;99.90;;;;;;5089034;28;20483;-81
2023/04/13 09:19:07;;;;;;;11.68;2.42;;;9.10;99.90;;;;;;5089752;28;20218;-82
2023/04/13 09:21:41;;;;;;;13.60;2.10;;;9.20;99.90;;;;;;5088205;28;20023;-82
2023/04/13 09:24:07;;;;;;;14.45;2.35;;;9.30;99.90;;;;;;5076030;28;20032;-83
2023/04/13 09:26:46;;;;;;;10.68;2.03;;;9.30;99.90;;;;;;5089682;28;20481;-84
2023/04/13 09:29:15;;;;;;;11.50;2.85;;;9.30;99.90;;;;;;5088702;28;20074;-82
2023/04/13 09:31:42;;;;;;;9.98;2.10;;;9.10;99.90;;;;;;5075717;28;20046;-81
2023/04/13 09:34:08;;;;;;;9.30;1.98;;;9.00;99.90;;;;;;5089006;28;20027;-82
2023/04/13 09:36:34;;;;;;;10.18;1.80;;;9.00;99.90;;;;;;5075226;28;20028;-85
2023/04/13 09:38:59;;;;;;;10.95;1.83;;;9.00;99.90;;;;;;5075753;28;20504;-85
2023/04/13 09:41:32;;;;;;;15.48;2.47;;;9.20;99.90;;;;;;5074613;28;20020;-84
2023/04/13 09:44:19;;;;;;;14.02;2.72;;;9.80;99.90;;;;;;5078237;28;20478;-82
2023/04/13 09:47:06;;;;;;;13.85;2.42;;;10.00;99.90;;;;;;5088698;28;20032;-84
2023/04/13 09:49:41;;;;;;;12.82;1.80;;;10.20;99.90;;;;;;5088490;28;20024;-82
2023/04/13 09:52:20;;;;;;;12.63;2.08;;;10.50;99.90;;;;;;5089037;28;20478;-83
2023/04/13 09:54:53;;;;;;;11.18;2.08;;;11.00;99.90;;;;;;5088815;28;20550;-83
2023/04/13 09:57:26;;;;;;;9.68;1.58;;;11.20;99.90;;;;;;5088525;28;20528;-83
2023/04/13 09:59:52;;;;;;;;;;;11.60;99.90;;;;;;5087430;28;20191;-80
2023/04/13 10:02:18;;;;;;;10.10;2.00;;;11.40;99.90;;;;;;5087216;28;19912;-81
2023/04/13 10:04:45;;;;;;;9.15;1.95;;;11.40;99.90;;;;;;5075291;28;20016;-82
2023/04/13 10:07:12;;;;;;;9.77;1.48;;;11.50;99.90;;;;;;5088346;28;20397;-80
2023/04/13 10:09:38;;;;;;;11.88;1.95;;;11.60;99.90;;;;;;5087622;28;20478;-82
2023/04/13 10:12:05;;;;;;;9.13;1.85;;;12.00;99.90;;;;;;5088688;28;20038;-81
2023/04/13 10:14:34;;;;;;;13.85;2.30;;;11.80;99.90;;;;;;5069351;28;20108;-82
2023/04/13 10:17:33;;;;;;;8.52;1.80;;;11.90;99.90;;;;;;5087850;28;20024;-83
2023/04/13 10:20:06;;;;;;;9.13;2.08;;;12.40;99.90;;;;;;5091131;28;20028;-83
2023/04/13 10:22:33;;;;;;;8.50;2.20;;;12.40;99.90;;;;;;5088266;28;20023;-81
2023/04/13 10:24:59;;;;;;;9.38;1.90;;;12.40;99.90;;;;;;5071376;28;20031;-83
2023/04/13 10:27:27;;;;;;;7.68;1.90;;;12.60;99.90;;;;;;5088111;28;20047;-81
2023/04/13 10:29:53;;;;;;;8.77;1.70;;;12.30;99.90;;;;;;5074761;28;20487;-81
2023/04/13 10:32:27;;;;;;;14.55;2.15;;;11.90;99.90;;;;;;5086857;28;20031;-80
2023/04/13 10:34:53;;;;;;;10.85;1.95;;;11.40;99.90;;;;;;5087003;28;20031;-81
2023/04/13 10:37:24;;;;;;;8.45;1.88;;;11.00;99.90;;;;;;5087216;28;20020;-80
2023/04/13 10:40:05;;;;;;;9.13;1.65;;;10.50;99.90;;;;;;5086488;28;20020;-83
2023/04/13 10:42:46;;;;;;;10.70;1.67;;;9.90;99.90;;;;;;5075049;28;20402;-83
2023/04/13 10:45:24;;;;;;;9.82;2.20;;;9.60;99.90;;;;;;5075261;28;20024;-81
2023/04/13 10:47:51;;;;;;;14.38;2.55;;;9.40;99.90;;;;;;5087472;28;20071;-81
2023/04/13 10:50:22;;;;;;;13.48;1.80;;;9.20;99.90;;;;;;5072593;28;20065;-81
2023/04/13 10:53:05;;;;;;;9.40;1.85;;;9.30;99.90;;;;;;5074448;28;20184;-82
2023/04/13 10:55:34;;;;;;;12.50;2.15;;;9.60;99.90;;;;;;5086868;28;20073;-81
2023/04/13 10:58:01;;;;;;;12.13;2.38;;;10.10;99.90;;;;;;5087382;28;20040;-80
2023/04/13 11:00:29;;;;;;;9.60;2.20;;;10.40;99.90;;;;;;5087202;28;20243;-81
2023/04/13 11:02:56;;;;;;;11.38;1.70;;;10.20;99.90;;;;;;5087159;28;20492;-81
2023/04/13 11:05:23;;;;;;;8.10;1.50;;;9.70;99.90;;;;;;5085095;28;20031;-82
2023/04/13 11:07:50;;;;;;;9.73;1.65;;;9.30;99.90;;;;;;5087335;28;20510;-81
2023/04/13 11:10:26;;;;;;;8.23;1.85;;;9.50;99.90;;;;;;5086522;28;20016;-81
2023/04/13 11:12:53;;;;;;;8.18;2.00;;;10.30;99.90;;;;;;5087559;28;20054;-82
2023/04/13 11:15:27;;;;;;;16.95;2.72;;;11.10;99.90;;;;;;5072823;28;20489;-82
2023/04/13 11:17:57;;;;;;;12.13;1.92;;;11.90;99.90;;;;;;5087422;28;20016;-81
2023/04/13 11:20:34;;;;;;;8.95;2.00;;;12.40;99.90;;;;;;5076357;28;20039;-82
2023/04/13 11:23:05;;;;;;;12.73;2.03;;;12.80;99.90;;;;;;5086831;28;20038;-82
2023/04/13 11:25:32;;;;;;;7.28;1.23;;;12.50;99.90;;;;;;5074333;28;20032;-81
2023/04/13 11:28:00;;;;;;;11.52;1.90;;;11.90;99.90;;;;;;5087160;28;20024;-82
2023/04/13 11:30:26;;;;;;;11.00;2.28;;;11.70;99.90;;;;;;5085501;28;20424;-81
2023/04/13 11:32:52;;;;;;;9.43;1.83;;;12.40;99.90;;;;;;5074996;28;20442;-82
2023/04/13 11:35:20;;;;;;;7.80;1.60;;;13.10;99.90;;;;;;5072947;28;20588;-82
2023/04/13 11:37:48;;;;;;;9.48;1.70;;;13.60;99.90;;;;;;5072245;28;20031;-82
2023/04/13 11:40:20;;;;;;;9.45;1.85;;;13.80;99.90;;;;;;5073540;28;20031;-81
2023/04/13 11:42:47;;;;;;;9.13;1.73;;;13.70;99.90;;;;;;5080187;28;20031;-81
2023/04/13 11:45:17;;;;;;;8.30;1.60;;;13.80;99.90;;;;;;5086329;28;20036;-82
2023/04/13 11:47:44;;;;;;;10.43;2.00;;;13.60;99.90;;;;;;5073802;28;20082;-84
2023/04/13 11:50:11;;;;;;;9.82;1.67;;;13.50;99.90;;;;;;5087151;28;20466;-82
2023/04/13 11:52:38;;;;;;;10.15;2.00;;;13.30;99.90;;;;;;5086634;28;20363;-84
2023/04/13 11:55:05;;;;;;;10.90;2.67;;;12.90;99.90;;;;;;5072579;28;20034;-81
2023/04/13 11:57:31;;;;;;;8.70;2.05;;;12.90;99.90;;;;;;5072279;28;20052;-80
2023/04/13 11:59:58;;;;;;;6.82;1.75;;;12.80;99.90;;;;;;5073818;28;20013;-81
2023/04/13 12:02:27;;;;;;;8.52;2.00;;;12.80;99.90;;;;;;5086532;28;20036;-81
2023/04/13 12:04:54;;;;;;;8.95;1.42;;;12.70;99.90;;;;;;5087006;28;20028;-81
2023/04/13 12:07:20;;;;;;;8.63;1.80;;;12.60;99.90;;;;;;5072703;28;20043;-79
2023/04/13 12:09:47;;;;;;;7.18;1.70;;;12.70;99.90;;;;;;5065872;28;20358;-82
2023/04/13 12:12:17;;;;;;;8.05;1.67;;;12.50;99.90;;;;;;5071665;28;20436;-81
2023/04/13 12:14:52;;;;;;;5.10;1.08;;;12.40;99.90;;;;;;5086353;28;20016;-83
2023/04/13 12:17:18;;;;;;;5.53;1.27;;;13.00;99.90;;;;;;5073418;28;20020;-81
2023/04/13 12:19:44;;;;;;;7.22;1.33;;;13.70;99.90;;;;;;5071622;28;20028;-81
2023/04/13 12:22:09;;;;;;;5.60;1.33;;;13.90;99.90;;;;;;5087325;28;20036;-83
2023/04/13 12:24:37;;;;;;;7.28;1.45;;;14.00;99.90;;;;;;5085391;28;20043;-80
2023/04/13 12:27:03;;;;;;;7.32;1.50;;;14.00;99.90;;;;;;5067922;28;20105;-82
2023/04/13 12:29:29;;;;;;;5.75;1.38;;;14.20;99.90;;;;;;5077078;28;20416;-82
2023/04/13 12:32:02;;;;;;;7.47;1.73;;;14.50;99.90;;;;;;5076294;28;20032;-83
2023/04/13 12:34:28;;;;;;;7.05;1.50;;;14.80;99.90;;;;;;5077177;28;20409;-83
2023/04/13 12:36:54;;;;;;;7.22;1.33;;;15.20;99.90;;;;;;5077628;28;20089;-82
2023/04/13 12:39:19;;;;;;;7.40;1.25;;;15.50;99.90;;;;;;5075618;28;20048;-84
2023/04/13 12:41:45;;;;;;;6.85;1.55;;;15.90;99.90;;;;;;5089452;28;20059;-84
2023/04/13 12:44:11;;;;;;;8.55;2.00;;;15.70;99.90;;;;;;5090825;28;20020;-83
2023/04/13 12:46:36;;;;;;;6.07;2.10;;;15.10;99.90;;;;;;5076148;28;20044;-82
2023/04/13 12:49:02;;;;;;;5.57;1.85;;;15.10;99.90;;;;;;5089306;28;20028;-81
2023/04/13 12:51:27;;;;;;;6.85;1.92;;;15.10;99.90;;;;;;5088853;28;20032;-81
2023/04/13 12:53:53;;;;;;;7.45;1.73;;;15.10;99.90;;;;;;5090065;28;20140;-82
2023/04/13 12:56:19;;;;;;;7.60;1.52;;;14.70;99.90;;;;;;5075658;28;20531;-80